Time;durP1;ratioP1;P1;durP2;ratioP2;P2;SDS_P1;SDS_P2;PMS_P1;PMS_P2;Temp;Humidity;BMP_temperature;BMP_pressure;BME280_temperature;BME280_humidity;BME280_pressure;Samples;Min_cycle;Max_cycle;Signal;HPM_P1;HPM_P2
2021/03/12 00:00:37;;;;;;;4.25;0.73;;;;;;;4.96;83.19;95889.44;5075950;28;20432;-73
2021/03/12 00:03:06;;;;;;;4.93;1.15;;;;;;;4.99;83.18;95885.63;5076058;28;20515;-74
2021/03/12 00:05:33;;;;;;;2.72;0.80;;;;;;;4.99;82.99;95890.81;5075483;28;20063;-74
2021/03/12 00:07:59;;;;;;;2.53;0.90;;;;;;;5.00;82.68;95898.44;5075084;28;20033;-73
2021/03/12 00:10:27;;;;;;;1.90;1.00;;;;;;;5.02;82.90;95904.25;5076033;28;20044;-74
2021/03/12 00:12:54;;;;;;;2.08;0.75;;;;;;;5.06;82.92;95891.63;5075814;28;20059;-74
2021/03/12 00:15:21;;;;;;;2.95;0.90;;;;;;;5.05;82.96;95888.25;5075103;28;20473;-74
2021/03/12 00:17:49;;;;;;;4.20;0.85;;;;;;;5.07;82.94;95891.44;5075894;28;20402;-74
2021/03/12 00:20:22;;;;;;;6.40;1.10;;;;;;;5.07;82.30;95888.06;5075921;28;20063;-73
2021/03/12 00:22:49;;;;;;;1.38;1.00;;;;;;;5.06;82.36;95884.66;5075491;28;20477;-73
2021/03/12 00:25:19;;;;;;;3.35;1.15;;;;;;;5.05;82.29;95885.66;5075406;28;20032;-74
2021/03/12 00:27:45;;;;;;;3.00;0.90;;;;;;;5.05;81.87;95892.66;5075603;28;20461;-74
2021/03/12 00:30:12;;;;;;;2.22;0.85;;;;;;;5.04;82.08;95897.06;5075706;28;20041;-73
2021/03/12 00:32:39;;;;;;;1.92;0.93;;;;;;;5.04;81.39;95897.06;5075777;28;20041;-73
2021/03/12 00:35:06;;;;;;;5.85;0.98;;;;;;;5.05;81.85;95909.03;5075398;28;20036;-74
2021/03/12 00:37:34;;;;;;;2.65;0.95;;;;;;;5.04;81.96;95902.25;5075561;28;20037;-74
2021/03/12 00:40:01;;;;;;;2.63;0.85;;;;;;;5.05;82.04;95913.44;5075263;28;20035;-74
2021/03/12 00:42:27;;;;;;;2.05;0.90;;;;;;;5.05;81.99;95914.22;5075223;28;20400;-73
2021/03/12 00:44:53;;;;;;;3.55;1.10;;;;;;;5.07;81.89;95908.84;5074981;28;20408;-73
2021/03/12 00:47:19;;;;;;;6.20;1.20;;;;;;;5.06;81.91;95909.81;5074958;28;20040;-74
2021/03/12 00:49:46;;;;;;;2.92;1.10;;;;;;;5.04;80.99;95919.63;5075733;28;20115;-73
2021/03/12 00:52:12;;;;;;;2.55;0.88;;;;;;;5.05;81.08;95918.63;5075403;28;20048;-74
2021/03/12 00:54:38;;;;;;;3.78;1.85;;;;;;;5.07;80.94;95927.03;5075043;28;20149;-74
2021/03/12 00:57:05;;;;;;;4.22;1.00;;;;;;;5.05;80.70;95922.03;5074960;28;20100;-73
2021/03/12 00:59:31;;;;;;;5.05;1.00;;;;;;;5.06;80.62;95925.41;5074624;28;20408;-74
2021/03/12 01:01:57;;;;;;;2.90;0.88;;;;;;;5.04;80.15;95943.81;5075285;28;20059;-74
2021/03/12 01:04:23;;;;;;;4.40;1.00;;;;;;;5.05;80.19;95942.81;5075152;28;20041;-74
2021/03/12 01:06:49;;;;;;;2.63;1.00;;;;;;;5.06;80.07;95949.63;5073650;28;20492;-73
2021/03/12 01:09:16;;;;;;;2.92;0.90;;;;;;;5.05;79.96;95942.81;5073552;28;20397;-73
2021/03/12 01:11:42;;;;;;;5.18;1.50;;;;;;;5.04;79.05;95946.44;5074778;28;20508;-74
2021/03/12 01:14:08;;;;;;;6.07;0.90;;;;;;;5.02;78.91;95943.22;5074510;28;20051;-73
2021/03/12 01:16:34;;;;;;;1.52;0.57;;;;;;;5.03;78.63;95944.81;5074734;28;20388;-74
2021/03/12 01:19:00;;;;;;;4.65;1.23;;;;;;;5.02;78.41;95942.44;5074652;28;20041;-74
2021/03/12 01:21:26;;;;;;;2.90;1.40;;;;;;;5.03;78.48;95947.41;5074336;28;20048;-74
2021/03/12 01:23:53;;;;;;;3.22;0.90;;;;;;;5.03;78.71;95938.81;5073925;28;20049;-74
2021/03/12 01:26:19;;;;;;;7.22;1.23;;;;;;;5.04;78.36;95940.41;5074319;28;20041;-74
2021/03/12 01:28:45;;;;;;;2.35;1.33;;;;;;;5.03;78.05;95933.63;5074781;28;20033;-74
2021/03/12 01:31:11;;;;;;;5.07;1.20;;;;;;;5.03;77.94;95931.81;5074442;28;20045;-74
2021/03/12 01:33:37;;;;;;;3.38;0.98;;;;;;;5.05;78.22;95940.22;5060159;28;20037;-74
2021/03/12 01:36:04;;;;;;;5.78;1.20;;;;;;;5.04;77.96;95936.03;5074403;28;20037;-74
2021/03/12 01:38:30;;;;;;;5.45;2.72;;;;;;;5.04;77.93;95938.63;5074188;28;20043;-74
2021/03/12 01:40:56;;;;;;;3.80;1.38;;;;;;;5.04;78.27;95941.22;5074061;28;20373;-74
2021/03/12 01:43:22;;;;;;;4.38;1.13;;;;;;;5.02;77.92;95943.22;5074230;28;20047;-74
2021/03/12 01:45:50;;;;;;;5.97;1.30;;;;;;;5.02;77.97;95939.81;5074244;28;20032;-73
2021/03/12 01:48:20;;;;;;;3.10;1.00;;;;;;;5.02;77.75;95963.22;5074475;28;20033;-73
2021/03/12 01:50:51;;;;;;;4.55;1.45;;;;;;;5.00;77.14;95958.22;5074036;28;20344;-73
2021/03/12 01:53:21;;;;;;;4.50;1.58;;;;;;;4.99;77.29;95963.59;5073909;28;20491;-74
2021/03/12 01:55:48;;;;;;;2.38;0.90;;;;;;;4.99;77.41;95959.19;5073783;28;20016;-73
2021/03/12 01:58:15;;;;;;;7.18;1.20;;;;;;;4.97;77.23;95953.38;5073781;28;20481;-74
2021/03/12 02:00:41;;;;;;;4.00;1.10;;;;;;;4.98;77.26;95957.59;5073809;28;20048;-73
2021/03/12 02:03:10;;;;;;;3.03;0.95;;;;;;;5.01;77.03;95959.00;5073874;28;20044;-73
2021/03/12 02:05:37;;;;;;;5.05;0.95;;;;;;;5.01;77.23;95962.38;5073539;28;20028;-74
2021/03/12 02:08:04;;;;;;;5.75;1.10;;;;;;;4.99;76.99;95956.59;5073372;28;20032;-74
2021/03/12 02:10:31;;;;;;;3.97;1.23;;;;;;;5.00;76.83;95968.59;5074078;28;20043;-73
2021/03/12 02:13:09;;;;;;;4.32;1.17;;;;;;;4.98;76.17;95970.59;5073746;28;20044;-73
2021/03/12 02:15:46;;;;;;;2.97;1.05;;;;;;;4.97;75.84;95975.97;5060561;28;20028;-73
2021/03/12 02:18:15;;;;;;;3.05;0.95;;;;;;;4.95;76.19;95980.56;5074029;28;20040;-73
2021/03/12 02:20:52;;;;;;;3.10;0.95;;;;;;;4.91;74.55;95989.72;5073273;28;20037;-74
2021/03/12 02:23:31;;;;;;;3.35;0.98;;;;;;;4.86;74.84;95983.31;5073114;28;20412;-73
2021/03/12 02:26:03;;;;;;;2.75;0.95;;;;;;;4.83;74.47;95982.91;5073418;28;20476;-74
2021/03/12 02:28:30;;;;;;;7.72;1.00;;;;;;;4.80;75.01;95984.09;5073523;28;20047;-74
2021/03/12 02:30:58;;;;;;;7.70;1.48;;;;;;;4.77;75.22;95987.09;5073313;28;20045;-74
2021/03/12 02:33:27;;;;;;;2.83;0.80;;;;;;;4.74;74.98;95984.84;5072975;28;20037;-74
2021/03/12 02:35:55;;;;;;;3.95;1.00;;;;;;;4.72;74.73;95991.25;5072470;28;20392;-74
2021/03/12 02:38:25;;;;;;;3.55;1.13;;;;;;;4.69;74.74;95989.84;5073393;28;20032;-74
2021/03/12 02:40:53;;;;;;;6.25;1.17;;;;;;;4.69;74.95;95995.03;5073229;28;20028;-74
2021/03/12 02:43:20;;;;;;;5.68;0.88;;;;;;;4.67;74.80;95994.41;5073129;28;20028;-74
2021/03/12 02:45:48;;;;;;;4.07;1.25;;;;;;;4.63;74.68;95994.00;5072955;28;20040;-74
2021/03/12 02:48:15;;;;;;;2.17;1.20;;;;;;;4.61;74.63;96008.97;5073447;28;20052;-74
2021/03/12 02:50:42;;;;;;;2.10;1.10;;;;;;;4.59;74.56;95999.75;5073015;28;20040;-74
2021/03/12 02:53:09;;;;;;;3.50;1.00;;;;;;;4.58;74.23;96006.75;5073283;28;20054;-74
2021/03/12 02:55:37;;;;;;;5.18;0.95;;;;;;;4.56;74.25;96008.75;5073173;28;20052;-74
2021/03/12 02:58:05;;;;;;;2.55;1.17;;;;;;;4.55;73.98;96008.94;5072838;28;20043;-73
2021/03/12 03:00:33;;;;;;;4.75;1.33;;;;;;;4.53;73.83;96001.31;5073218;28;20032;-74
2021/03/12 03:03:01;;;;;;;2.75;0.88;;;;;;;4.54;73.91;96010.72;5073064;28;20461;-74
2021/03/12 03:05:28;;;;;;;8.55;1.10;;;;;;;4.55;73.99;96012.31;5073465;28;20036;-73
2021/03/12 03:07:56;;;;;;;3.58;1.10;;;;;;;4.54;73.73;96015.13;5072877;28;20033;-73
2021/03/12 03:10:24;;;;;;;2.42;0.82;;;;;;;4.51;73.47;96011.09;5073024;28;20040;-73
2021/03/12 03:12:53;;;;;;;5.43;1.40;;;;;;;4.53;73.39;96022.09;5072751;28;20044;-74
2021/03/12 03:15:21;;;;;;;5.50;1.02;;;;;;;4.54;73.61;96012.53;5062500;28;20040;-74
2021/03/12 03:17:51;;;;;;;1.63;0.70;;;;;;;4.53;73.00;96016.91;5072686;28;20044;-74
2021/03/12 03:20:18;;;;;;;3.17;0.88;;;;;;;4.53;73.34;96018.69;5072722;28;20064;-73
2021/03/12 03:22:44;;;;;;;3.13;1.35;;;;;;;4.52;72.95;96017.91;5072773;28;20048;-74
2021/03/12 03:25:13;;;;;;;2.42;1.10;;;;;;;4.53;73.35;96029.88;5072567;28;20040;-74
2021/03/12 03:27:41;;;;;;;3.58;0.73;;;;;;;4.54;73.27;96031.50;5073225;28;20043;-74
2021/03/12 03:30:10;;;;;;;7.72;1.00;;;;;;;4.53;72.92;96035.06;5072760;28;20032;-73
2021/03/12 03:32:37;;;;;;;5.80;0.90;;;;;;;4.53;72.67;96036.88;5072868;28;20041;-74
2021/03/12 03:35:08;;;;;;;2.38;0.95;;;;;;;4.52;72.38;96040.47;5072718;28;20455;-73
2021/03/12 03:37:34;;;;;;;5.22;1.00;;;;;;;4.52;72.54;96054.25;5072690;28;20473;-74
2021/03/12 03:40:02;;;;;;;4.63;1.13;;;;;;;4.54;72.56;96061.88;5072756;28;20468;-74
2021/03/12 03:42:31;;;;;;;2.47;1.10;;;;;;;4.53;72.37;96061.03;5072597;28;20103;-74
2021/03/12 03:44:59;;;;;;;3.08;1.02;;;;;;;4.53;72.72;96074.03;5072507;28;20043;-74
2021/03/12 03:47:31;;;;;;;5.00;1.38;;;;;;;4.55;71.67;96071.25;5075479;28;20036;-74
2021/03/12 03:49:58;;;;;;;5.28;1.05;;;;;;;4.53;72.19;96070.63;5076353;28;20041;-74
2021/03/12 03:52:25;;;;;;;4.80;1.20;;;;;;;4.50;71.49;96064.03;5076026;28;20037;-74
2021/03/12 03:54:53;;;;;;;5.63;1.20;;;;;;;4.50;71.74;96082.22;5076243;28;20392;-74
2021/03/12 03:57:24;;;;;;;2.85;0.80;;;;;;;4.48;70.85;96084.97;5076698;28;20469;-74
2021/03/12 03:59:51;;;;;;;3.00;0.85;;;;;;;4.47;71.23;96087.75;5076108;28;20052;-74
2021/03/12 04:02:19;;;;;;;2.10;1.00;;;;;;;4.47;70.44;96103.34;5076262;28;20040;-74
2021/03/12 04:04:48;;;;;;;5.82;1.10;;;;;;;4.43;70.20;96100.34;5075732;28;20037;-74
2021/03/12 04:07:19;;;;;;;5.95;1.77;;;;;;;4.42;70.25;96103.91;5075692;28;20047;-75
2021/03/12 04:09:49;;;;;;;6.10;1.20;;;;;;;4.40;69.07;96105.09;5076654;28;20040;-74
2021/03/12 04:12:17;;;;;;;1.88;0.95;;;;;;;4.39;70.08;96108.66;5076081;28;20048;-74
2021/03/12 04:14:46;;;;;;;8.02;1.50;;;;;;;4.35;69.84;96112.66;5075849;28;20032;-74
2021/03/12 04:17:14;;;;;;;4.18;1.05;;;;;;;4.36;69.85;96103.84;5075656;28;20472;-74
2021/03/12 04:19:40;;;;;;;6.07;1.08;;;;;;;4.36;69.82;96116.84;5075569;28;20392;-74
2021/03/12 04:22:08;;;;;;;4.57;1.20;;;;;;;4.35;69.57;96112.66;5076204;28;20053;-74
2021/03/12 04:24:35;;;;;;;4.20;1.27;;;;;;;4.34;69.59;96101.44;5075528;28;20047;-74
2021/03/12 04:27:03;;;;;;;5.10;1.05;;;;;;;4.33;69.45;96110.22;5075899;28;20037;-74
2021/03/12 04:29:29;;;;;;;2.67;1.08;;;;;;;4.33;69.57;96110.22;5075677;28;20045;-74
2021/03/12 04:31:57;;;;;;;3.05;1.17;;;;;;;4.31;69.42;96106.22;5075575;28;20505;-74
2021/03/12 04:34:24;;;;;;;5.85;1.40;;;;;;;4.28;69.11;96107.38;5075377;28;20040;-74
2021/03/12 04:36:51;;;;;;;6.25;2.10;;;;;;;4.26;68.95;96110.19;5066582;28;20103;-73
2021/03/12 04:39:18;;;;;;;5.55;1.50;;;;;;;4.23;69.06;96118.31;5075272;28;20043;-73
2021/03/12 04:41:46;;;;;;;4.35;1.33;;;;;;;4.18;68.97;96112.06;5075128;28;20072;-74
2021/03/12 04:44:13;;;;;;;6.57;1.25;;;;;;;4.13;68.89;96117.81;5075538;28;20108;-74
2021/03/12 04:46:39;;;;;;;7.15;1.52;;;;;;;4.05;68.78;96129.16;5075297;28;20044;-74
2021/03/12 04:49:08;;;;;;;6.28;1.40;;;;;;;4.00;68.49;96126.28;5059372;28;20040;-74
2021/03/12 04:51:36;;;;;;;4.15;1.38;;;;;;;3.99;68.48;96132.47;5074006;28;20048;-73
2021/03/12 04:54:12;;;;;;;7.22;1.42;;;;;;;3.98;67.58;96125.66;5075083;28;20036;-74
2021/03/12 04:56:39;;;;;;;5.35;1.50;;;;;;;3.97;68.57;96142.22;5075074;28;20037;-74
2021/03/12 04:59:05;;;;;;;2.22;1.20;;;;;;;3.97;69.03;96144.81;5073984;28;20062;-73
2021/03/12 05:01:34;;;;;;;4.15;1.13;;;;;;;3.89;69.29;96134.56;5074858;28;20028;-74
2021/03/12 05:04:07;;;;;;;2.83;0.85;;;;;;;3.80;69.96;96131.28;5075073;28;20469;-73
2021/03/12 05:06:37;;;;;;;4.90;1.10;;;;;;;3.71;69.62;96137.53;5074895;28;20113;-74
2021/03/12 05:09:04;;;;;;;2.95;0.85;;;;;;;3.65;69.40;96130.47;5073718;28;20043;-73
2021/03/12 05:11:30;;;;;;;1.85;0.88;;;;;;;3.59;69.82;96129.44;5074507;28;20476;-74
2021/03/12 05:13:56;;;;;;;4.60;0.90;;;;;;;3.58;69.77;96130.41;5075171;28;20045;-74
2021/03/12 05:16:23;;;;;;;3.88;1.35;;;;;;;3.54;69.90;96126.56;5074816;28;20040;-73
2021/03/12 05:18:49;;;;;;;1.80;0.60;;;;;;;3.58;69.91;96129.63;5074621;28;20469;-73
2021/03/12 05:21:15;;;;;;;2.80;1.00;;;;;;;3.61;70.31;96135.25;5074571;28;20056;-74
2021/03/12 05:23:42;;;;;;;2.03;0.85;;;;;;;3.63;70.28;96137.63;5074461;28;20056;-73
2021/03/12 05:26:08;;;;;;;4.13;1.00;;;;;;;3.65;70.37;96140.84;5074238;28;20052;-74
2021/03/12 05:28:34;;;;;;;2.70;0.70;;;;;;;3.66;70.08;96150.25;5073965;28;20051;-74
2021/03/12 05:31:01;;;;;;;6.22;1.45;;;;;;;3.66;70.16;96152.84;5074230;28;20045;-74
2021/03/12 05:33:27;;;;;;;4.15;1.05;;;;;;;3.67;70.03;96151.84;5074187;28;20404;-74
2021/03/12 05:35:53;;;;;;;6.00;1.20;;;;;;;3.70;70.21;96148.91;5074019;28;20473;-74
2021/03/12 05:38:19;;;;;;;5.95;1.10;;;;;;;3.74;70.09;96160.53;5074045;28;20400;-73
2021/03/12 05:40:45;;;;;;;5.18;1.70;;;;;;;3.76;69.89;96155.97;5074015;28;20492;-73
2021/03/12 05:43:12;;;;;;;3.83;1.40;;;;;;;3.78;69.94;96153.16;5074100;28;20036;-73
2021/03/12 05:45:38;;;;;;;4.45;1.15;;;;;;;3.74;70.08;96152.75;5073664;28;20045;-73
2021/03/12 05:48:06;;;;;;;6.97;2.03;;;;;;;3.76;70.10;96147.34;5074093;28;20044;-73
2021/03/12 05:50:33;;;;;;;6.15;2.15;;;;;;;3.79;70.70;96150.41;5074241;28;20469;-73
2021/03/12 05:53:00;;;;;;;5.18;1.70;;;;;;;3.84;70.59;96160.22;5073684;28;20056;-74
2021/03/12 05:55:26;;;;;;;4.07;1.38;;;;;;;3.80;70.11;96139.06;5073850;28;20048;-74
2021/03/12 05:57:53;;;;;;;6.25;1.73;;;;;;;3.81;70.36;96147.63;5073511;28;20591;-74
2021/03/12 06:00:20;;;;;;;4.65;1.70;;;;;;;3.84;70.49;96155.88;5074158;28;20037;-73
2021/03/12 06:02:46;;;;;;;4.07;2.03;;;;;;;3.86;70.38;96153.06;5072911;28;20072;-73
2021/03/12 06:05:12;;;;;;;7.03;1.60;;;;;;;3.90;70.38;96151.72;5073478;28;20051;-73
2021/03/12 06:07:39;;;;;;;4.80;1.85;;;;;;;3.90;69.88;96163.88;5073689;28;20040;-73
2021/03/12 06:10:08;;;;;;;6.82;2.20;;;;;;;3.83;69.73;96161.22;5073352;28;20037;-74
2021/03/12 06:12:34;;;;;;;5.30;1.70;;;;;;;3.75;69.88;96166.50;5073021;28;20049;-73
2021/03/12 06:15:04;;;;;;;4.03;1.50;;;;;;;3.69;69.97;96162.84;5073476;28;20044;-74
2021/03/12 06:17:34;;;;;;;8.13;1.75;;;;;;;3.69;70.20;96167.25;5073679;28;20040;-73
2021/03/12 06:20:07;;;;;;;4.72;1.48;;;;;;;3.74;70.53;96163.13;5073176;28;20049;-73
2021/03/12 06:22:35;;;;;;;8.18;1.30;;;;;;;3.79;70.49;96160.78;5073245;28;20041;-74
2021/03/12 06:25:15;;;;;;;6.57;1.92;;;;;;;4.12;71.07;96173.31;5073859;28;20051;-72
2021/03/12 06:27:41;;;;;;;11.48;1.77;;;;;;;4.68;70.92;96170.84;5073268;28;20035;-73
2021/03/12 06:30:08;;;;;;;4.03;1.02;;;;;;;5.40;70.59;96174.13;5073390;28;20055;-73
2021/03/12 06:32:46;;;;;;;7.03;1.40;;;;;;;6.33;66.95;96159.91;5073044;28;20468;-74
2021/03/12 06:35:18;;;;;;;2.63;1.40;;;;;;;6.82;66.91;96174.34;5073442;28;20032;-73
2021/03/12 06:37:46;;;;;;;7.00;1.70;;;;;;;6.49;66.29;96170.75;5073843;28;20032;-73
2021/03/12 06:40:20;;;;;;;8.05;1.27;;;;;;;5.95;66.02;96186.44;5073041;28;20063;-74
2021/03/12 06:43:05;;;;;;;4.35;0.98;;;;;;;5.52;66.55;96190.00;5073341;28;20032;-73
2021/03/12 06:45:51;;;;;;;4.07;1.40;;;;;;;5.21;67.08;96198.22;5072958;28;20036;-73
2021/03/12 06:48:32;;;;;;;5.85;1.27;;;;;;;4.92;67.70;96200.00;5073596;28;20040;-73
2021/03/12 06:51:05;;;;;;;5.97;1.30;;;;;;;4.74;68.06;96207.44;5073184;28;20033;-73
2021/03/12 06:53:34;;;;;;;3.13;1.30;;;;;;;4.66;68.52;96205.78;5071725;28;20033;-74
2021/03/12 06:56:03;;;;;;;6.05;1.27;;;;;;;5.02;69.20;96210.09;5073065;28;20437;-73
2021/03/12 06:58:30;;;;;;;3.88;1.30;;;;;;;5.78;69.29;96214.56;5073211;28;20028;-73
2021/03/12 07:00:57;;;;;;;4.65;1.23;;;;;;;6.43;68.22;96202.00;5073123;28;20041;-73
2021/03/12 07:03:26;;;;;;;4.93;1.10;;;;;;;6.58;67.06;96194.78;5072948;28;20032;-73
2021/03/12 07:06:04;;;;;;;2.35;0.80;;;;;;;6.40;65.50;96192.75;5072925;28;20035;-74
2021/03/12 07:08:42;;;;;;;2.67;0.90;;;;;;;6.24;66.46;96198.34;5072960;28;20032;-73
2021/03/12 07:11:26;;;;;;;6.97;1.05;;;;;;;6.60;65.58;96192.78;5073270;28;20036;-73
2021/03/12 07:13:56;;;;;;;2.30;0.93;;;;;;;7.50;66.73;96193.16;5058365;28;20032;-73
2021/03/12 07:16:25;;;;;;;3.30;0.98;;;;;;;7.94;64.99;96193.41;5071657;28;20500;-74
2021/03/12 07:18:52;;;;;;;3.60;1.10;;;;;;;8.01;63.91;96186.34;5072676;28;20044;-73
2021/03/12 07:21:20;;;;;;;4.47;1.20;;;;;;;7.65;63.32;96190.28;5074208;28;20048;-73
2021/03/12 07:23:58;;;;;;;3.70;1.17;;;;;;;7.26;63.51;96188.56;5076902;28;20044;-74
2021/03/12 07:26:27;;;;;;;3.90;1.45;;;;;;;7.21;64.38;96193.59;5077067;28;20032;-73
2021/03/12 07:28:59;;;;;;;4.30;1.02;;;;;;;7.52;62.99;96191.13;5076535;28;20036;-74
2021/03/12 07:31:38;;;;;;;5.47;1.20;;;;;;;7.31;61.03;96175.75;5077196;28;20040;-74
2021/03/12 07:34:11;;;;;;;4.07;1.02;;;;;;;7.06;63.40;96199.81;5076867;28;20035;-74
2021/03/12 07:36:43;;;;;;;3.22;1.33;;;;;;;6.82;63.32;96203.03;5076755;28;20032;-73
2021/03/12 07:39:14;;;;;;;2.70;1.17;;;;;;;6.69;64.23;96206.44;5075147;28;20032;-74
2021/03/12 07:41:42;;;;;;;1.60;0.93;;;;;;;6.57;64.46;96202.81;5076352;28;20040;-74
2021/03/12 07:44:13;;;;;;;1.95;0.70;;;;;;;6.43;64.46;96207.19;5076774;28;20040;-73
2021/03/12 07:46:41;;;;;;;2.55;1.58;;;;;;;6.36;64.78;96214.97;5075830;28;20397;-74
2021/03/12 07:49:30;;;;;;;4.07;1.27;;;;;;;6.28;64.37;96220.38;5075926;28;20445;-73
2021/03/12 07:51:59;;;;;;;5.78;1.20;;;;;;;6.20;64.97;96218.75;5076235;28;20025;-74
2021/03/12 07:54:37;;;;;;;4.20;1.30;;;;;;;6.38;64.57;96217.41;5076015;28;20047;-73
2021/03/12 07:57:04;;;;;;;5.97;1.08;;;;;;;7.09;65.33;96220.28;5076512;28;20418;-74
2021/03/12 07:59:46;;;;;;;4.22;0.80;;;;;;;8.03;60.86;96188.75;5075977;28;20033;-74
2021/03/12 08:02:16;;;;;;;6.22;1.30;;;;;;;8.80;60.44;96191.34;5075943;28;20147;-74
2021/03/12 08:04:44;;;;;;;3.25;1.25;;;;;;;9.40;61.83;96204.72;5076348;28;20040;-74
2021/03/12 08:07:20;;;;;;;4.80;0.88;;;;;;;9.96;57.77;96190.63;5076120;28;20032;-74
2021/03/12 08:09:52;;;;;;;5.85;2.20;;;;;;;10.14;56.60;96175.91;5076014;28;20028;-73
2021/03/12 08:12:31;;;;;;;4.22;1.50;;;;;;;10.10;53.11;96151.16;5075884;28;20476;-74
2021/03/12 08:15:20;;;;;;;7.38;1.20;;;;;;;9.56;52.18;96124.84;5075655;28;20044;-74
2021/03/12 08:18:09;;;;;;;6.03;1.25;;;;;;;9.05;54.99;96168.63;5075908;28;20032;-74
2021/03/12 08:20:41;;;;;;;4.30;1.10;;;;;;;9.01;58.23;96201.47;5069142;28;20464;-74
2021/03/12 08:23:12;;;;;;;4.15;1.00;;;;;;;8.64;57.91;96193.47;5075757;28;20036;-74
2021/03/12 08:25:39;;;;;;;3.83;1.10;;;;;;;8.45;58.34;96202.25;5076016;28;20039;-74
2021/03/12 08:28:05;;;;;;;7.05;1.10;;;;;;;8.41;58.25;96203.66;5075536;28;20040;-74
2021/03/12 08:30:34;;;;;;;5.20;1.45;;;;;;;8.31;57.83;96193.63;5075743;28;20033;-74
2021/03/12 08:33:06;;;;;;;5.07;1.23;;;;;;;7.95;55.98;96179.34;5074309;28;20063;-74
2021/03/12 08:35:36;;;;;;;4.70;1.65;;;;;;;7.62;57.83;96198.56;5075121;28;20036;-74
2021/03/12 08:38:03;;;;;;;4.53;1.27;;;;;;;7.38;58.08;96205.22;5075208;28;20044;-74
2021/03/12 08:40:31;;;;;;;4.55;1.40;;;;;;;7.13;58.09;96207.66;5074698;28;20044;-74
2021/03/12 08:43:05;;;;;;;5.03;1.50;;;;;;;6.99;58.09;96214.69;5075258;28;20036;-74
2021/03/12 08:45:39;;;;;;;5.95;1.67;;;;;;;6.95;58.17;96212.66;5075412;28;20029;-74
2021/03/12 08:48:08;;;;;;;5.72;1.83;;;;;;;6.90;58.15;96197.63;5075579;28;20503;-75
2021/03/12 08:50:36;;;;;;;3.88;1.55;;;;;;;7.31;58.78;96200.00;5075531;28;20032;-74
2021/03/12 08:53:06;;;;;;;5.32;1.15;;;;;;;8.01;58.54;96202.00;5074898;28;20056;-74
2021/03/12 08:55:34;;;;;;;5.80;1.30;;;;;;;8.30;57.25;96185.00;5075041;28;20036;-74
2021/03/12 08:58:15;;;;;;;3.13;1.17;;;;;;;8.45;54.28;96150.78;5074959;28;20044;-74
2021/03/12 09:00:44;;;;;;;4.05;1.30;;;;;;;8.36;56.42;96167.69;5075125;28;20025;-74
2021/03/12 09:03:27;;;;;;;6.25;1.80;;;;;;;8.20;55.71;96166.38;5074729;28;20510;-74
2021/03/12 09:06:01;;;;;;;4.88;1.40;;;;;;;7.99;56.55;96180.53;5075316;28;20392;-74
2021/03/12 09:08:28;;;;;;;3.80;1.55;;;;;;;7.81;56.83;96183.84;5060172;28;20500;-74
2021/03/12 09:10:55;;;;;;;9.40;1.40;;;;;;;7.64;57.04;96183.50;5074814;28;20496;-74
2021/03/12 09:13:23;;;;;;;3.63;1.52;;;;;;;7.50;57.38;96174.88;5075180;28;20047;-74
2021/03/12 09:15:51;;;;;;;4.25;1.52;;;;;;;7.38;57.64;96183.53;5074654;28;20040;-73
2021/03/12 09:18:21;;;;;;;8.85;3.38;;;;;;;7.73;63.32;96195.28;5074969;28;20044;-72
2021/03/12 09:20:54;;;;;;;4.93;3.03;;;;;;;8.28;62.86;96191.44;5074815;28;20045;-73
2021/03/12 09:23:37;;;;;;;13.23;2.97;;;;;;;8.86;58.98;96165.16;5074777;28;20048;-73
2021/03/12 09:26:07;;;;;;;15.85;2.15;;;;;;;9.30;59.70;96167.78;5060887;28;20028;-72
2021/03/12 09:28:34;;;;;;;11.23;2.20;;;;;;;9.66;59.05;96156.53;5074408;28;20036;-73
2021/03/12 09:31:03;;;;;;;3.63;1.52;;;;;;;9.84;57.05;96149.69;5074410;28;20048;-74
2021/03/12 09:33:35;;;;;;;9.40;1.88;;;;;;;9.57;54.62;96134.28;5074205;28;20040;-75
2021/03/12 09:36:05;;;;;;;3.97;1.05;;;;;;;9.04;55.33;96135.63;5074182;28;20036;-74
2021/03/12 09:38:40;;;;;;;3.30;1.30;;;;;;;8.56;55.87;96149.28;5074271;28;20029;-74
2021/03/12 09:41:17;;;;;;;8.20;1.40;;;;;;;8.12;57.32;96172.63;5074650;28;20370;-74
2021/03/12 09:44:04;;;;;;;6.47;2.10;;;;;;;7.60;59.75;96191.91;5073278;28;20483;-74
2021/03/12 09:46:40;;;;;;;4.30;1.52;;;;;;;7.48;61.24;96189.94;5066920;28;20036;-73
2021/03/12 09:49:16;;;;;;;6.80;1.35;;;;;;;7.62;60.17;96182.06;5074012;28;20377;-73
2021/03/12 09:51:51;;;;;;;2.25;1.10;;;;;;;7.73;61.15;96192.69;5074268;28;20044;-73
2021/03/12 09:54:19;;;;;;;5.53;1.90;;;;;;;7.63;59.65;96186.28;5064503;28;20037;-73
2021/03/12 09:56:50;;;;;;;6.65;1.50;;;;;;;7.38;60.94;96200.00;5073887;28;20029;-74
2021/03/12 09:59:24;;;;;;;4.00;1.45;;;;;;;7.19;60.68;96209.44;5074080;28;20033;-73
2021/03/12 10:01:51;;;;;;;4.90;1.52;;;;;;;7.06;60.43;96214.69;5073732;28;20032;-73
2021/03/12 10:04:37;;;;;;;5.47;1.48;;;;;;;6.89;64.90;96228.09;5073564;28;20476;-73
2021/03/12 10:07:08;;;;;;;3.80;1.45;;;;;;;6.81;62.22;96199.63;5073782;28;20382;-73
2021/03/12 10:09:36;;;;;;;5.20;1.30;;;;;;;7.01;62.87;96194.41;5073650;28;20036;-73
2021/03/12 10:12:04;;;;;;;12.85;3.58;;;;;;;7.53;64.43;96186.72;5073676;28;20037;-74
2021/03/12 10:14:33;;;;;;;6.28;1.90;;;;;;;8.20;63.36;96181.25;5074035;28;20041;-74
2021/03/12 10:17:25;;;;;;;6.18;1.58;;;;;;;8.48;64.26;96189.56;5074041;28;20044;-74
2021/03/12 10:20:04;;;;;;;4.50;1.60;;;;;;;8.57;63.19;96202.34;5073154;28;20040;-74
2021/03/12 10:22:41;;;;;;;3.88;1.35;;;;;;;8.61;61.31;96191.28;5074140;28;20420;-74
2021/03/12 10:25:18;;;;;;;5.38;1.60;;;;;;;8.44;63.34;96208.47;5073134;28;20485;-74
2021/03/12 10:27:59;;;;;;;2.30;1.15;;;;;;;8.28;62.08;96202.69;5073435;28;20044;-74
2021/03/12 10:30:33;;;;;;;5.18;1.30;;;;;;;8.16;62.73;96195.72;5073832;28;20469;-73
2021/03/12 10:33:02;;;;;;;8.10;1.45;;;;;;;8.06;62.92;96196.16;5073350;28;20039;-73
2021/03/12 10:35:34;;;;;;;6.28;1.67;;;;;;;7.96;62.98;96201.03;5072739;28;20043;-73
2021/03/12 10:38:16;;;;;;;3.30;1.10;;;;;;;7.75;62.50;96194.28;5073288;28;20392;-73
2021/03/12 10:40:44;;;;;;;6.13;2.08;;;;;;;7.56;63.05;96188.94;5073376;28;20396;-73
2021/03/12 10:43:16;;;;;;;5.95;1.30;;;;;;;7.63;64.10;96194.91;5073154;28;20033;-73
2021/03/12 10:45:51;;;;;;;5.30;1.80;;;;;;;7.80;63.85;96184.81;5073356;28;20488;-73
2021/03/12 10:48:22;;;;;;;2.83;1.38;;;;;;;8.14;63.92;96181.06;5059167;28;20390;-73
2021/03/12 10:50:51;;;;;;;2.45;1.80;;;;;;;8.47;63.48;96187.16;5073333;28;20041;-73
2021/03/12 10:53:17;;;;;;;5.18;2.17;;;;;;;8.52;62.54;96184.69;5072874;28;20055;-73
2021/03/12 10:55:49;;;;;;;7.68;2.50;;;;;;;8.77;62.82;96173.47;5072857;28;20041;-74
2021/03/12 10:58:27;;;;;;;2.53;1.52;;;;;;;9.03;61.18;96169.84;5073220;28;20036;-74
2021/03/12 11:01:28;;;;;;;6.70;1.55;;;;;;;8.85;59.35;96149.69;5072630;28;20052;-74
2021/03/12 11:03:56;;;;;;;2.30;0.80;;;;;;;8.62;61.03;96171.19;5058539;28;20048;-73
2021/03/12 11:06:28;;;;;;;3.20;0.77;;;;;;;8.60;60.40;96165.34;5073050;28;20029;-74
2021/03/12 11:08:54;;;;;;;5.15;1.75;;;;;;;8.79;61.56;96166.22;5073394;28;20047;-74
2021/03/12 11:11:22;;;;;;;2.95;0.85;;;;;;;9.05;61.29;96166.00;5072936;28;20491;-74
2021/03/12 11:13:50;;;;;;;3.15;1.13;;;;;;;9.47;61.37;96154.91;5072791;28;20043;-74
2021/03/12 11:16:17;;;;;;;2.85;1.20;;;;;;;9.80;60.28;96138.84;5072818;28;20495;-74
2021/03/12 11:18:44;;;;;;;2.58;1.17;;;;;;;10.18;60.18;96145.59;5072821;28;20393;-74
2021/03/12 11:21:12;;;;;;;4.95;1.30;;;;;;;10.43;58.68;96131.59;5072784;28;20056;-75
2021/03/12 11:23:42;;;;;;;3.95;1.10;;;;;;;10.59;58.31;96120.47;5073045;28;20045;-74
2021/03/12 11:26:08;;;;;;;4.15;1.17;;;;;;;10.77;57.96;96119.56;5072817;28;20045;-74
2021/03/12 11:28:35;;;;;;;3.75;1.05;;;;;;;10.68;57.36;96111.22;5072639;28;20040;-74
2021/03/12 11:31:02;;;;;;;4.65;1.30;;;;;;;10.53;56.80;96103.81;5072693;28;20048;-74
2021/03/12 11:33:29;;;;;;;3.28;1.20;;;;;;;10.63;57.09;96111.13;5072833;28;20043;-74
2021/03/12 11:35:56;;;;;;;3.15;1.27;;;;;;;10.93;56.73;96095.28;5072592;28;20037;-74
2021/03/12 11:38:23;;;;;;;3.63;1.08;;;;;;;11.22;55.48;96073.59;5073118;28;20039;-74
2021/03/12 11:40:49;;;;;;;1.73;1.02;;;;;;;11.18;54.44;96063.53;5072760;28;20036;-74
2021/03/12 11:43:16;;;;;;;2.65;1.20;;;;;;;10.72;53.09;96061.75;5072665;28;20036;-74
2021/03/12 11:45:42;;;;;;;2.78;0.90;;;;;;;10.30;53.08;96051.34;5072579;28;20032;-74
2021/03/12 11:48:09;;;;;;;2.80;1.08;;;;;;;9.97;53.32;96076.16;5072637;28;20479;-74
2021/03/12 11:50:37;;;;;;;2.00;0.93;;;;;;;9.82;52.97;96066.09;5072222;28;20044;-74
2021/03/12 11:53:05;;;;;;;4.45;1.40;;;;;;;9.79;53.18;96057.91;5072625;28;20047;-74